createdAt,value
2023-11-29T00:03:17.321Z,-1.49
2023-11-29T00:08:21.158Z,-1.50
2023-11-29T00:13:23.373Z,-1.50
2023-11-29T00:18:25.653Z,-1.51
2023-11-29T00:23:27.785Z,-1.55
2023-11-29T00:28:34.482Z,-1.55
2023-11-29T00:33:36.566Z,-1.54
2023-11-29T00:38:38.699Z,-1.56
2023-11-29T00:43:40.743Z,-1.61
2023-11-29T00:48:42.836Z,-1.62
2023-11-29T00:53:45.282Z,-1.65
2023-11-29T00:58:47.372Z,-1.70
2023-11-29T01:03:49.571Z,-1.75
2023-11-29T01:08:52.483Z,-1.78
2023-11-29T01:13:54.792Z,-1.87
2023-11-29T01:18:58.954Z,-1.90
2023-11-29T01:24:01.386Z,-1.88
2023-11-29T01:29:03.533Z,-1.86
2023-11-29T01:34:05.770Z,-1.84
2023-11-29T01:39:08.225Z,-1.78
2023-11-29T01:44:10.623Z,-1.72
2023-11-29T01:49:13.743Z,-1.76
2023-11-29T01:54:17.508Z,-1.79
2023-11-29T01:59:19.770Z,-1.82
2023-11-29T02:04:22.077Z,-1.85
2023-11-29T02:09:25.061Z,-1.92
2023-11-29T02:14:27.216Z,-1.94
2023-11-29T02:19:29.387Z,-1.95
2023-11-29T02:24:40.794Z,-2.02
2023-11-29T02:29:44.109Z,-2.11
2023-11-29T02:34:46.152Z,-2.19
2023-11-29T02:39:48.212Z,-2.19
2023-11-29T02:44:50.802Z,-2.19
2023-11-29T02:49:52.919Z,-2.19
2023-11-29T02:54:55.046Z,-2.16
2023-11-29T02:59:57.231Z,-2.19
2023-11-29T03:04:59.349Z,-2.19
2023-11-29T03:10:01.389Z,-2.27
2023-11-29T03:15:03.685Z,-2.29
2023-11-29T03:20:09.075Z,-2.39
2023-11-29T03:25:11.189Z,-2.42
2023-11-29T03:30:14.038Z,-2.41
2023-11-29T03:35:16.265Z,-2.45
2023-11-29T03:40:18.389Z,-2.47
2023-11-29T03:45:20.574Z,-2.39
2023-11-29T03:50:23.563Z,-2.35
2023-11-29T03:55:25.785Z,-2.42
2023-11-29T04:00:27.852Z,-2.48
2023-11-29T04:05:30.128Z,-2.44
2023-11-29T04:10:35.344Z,-2.47
2023-11-29T04:15:37.920Z,-2.45
2023-11-29T04:20:40.253Z,-2.45
2023-11-29T04:25:42.503Z,-2.40
2023-11-29T04:30:44.927Z,-2.35
2023-11-29T04:35:47.172Z,-2.37
2023-11-29T04:40:49.409Z,-2.32
2023-11-29T04:45:51.754Z,-2.33
2023-11-29T04:50:53.850Z,-2.34
2023-11-29T04:55:57.067Z,-2.31
2023-11-29T05:00:59.108Z,-2.29
2023-11-29T05:06:01.189Z,-2.34
2023-11-29T05:11:08.339Z,-2.41
2023-11-29T05:16:10.606Z,-2.40
2023-11-29T05:21:12.745Z,-2.49
2023-11-29T05:26:15.637Z,-2.47
2023-11-29T05:31:19.645Z,-2.44
2023-11-29T05:36:22.792Z,-2.36
2023-11-29T05:41:24.992Z,-2.27
2023-11-29T05:46:29.778Z,-2.20
2023-11-29T05:51:31.968Z,-2.21
2023-11-29T05:56:34.027Z,-2.27
2023-11-29T06:01:38.287Z,-2.24
2023-11-29T06:06:40.428Z,-2.20
2023-11-29T06:11:42.872Z,-2.29
2023-11-29T06:16:45.050Z,-2.32
2023-11-29T06:21:47.661Z,-2.35
2023-11-29T06:26:50.651Z,-2.33
2023-11-29T06:31:52.873Z,-2.30
2023-11-29T06:36:55.165Z,-2.28
2023-11-29T06:41:57.211Z,-2.29
2023-11-29T06:47:00.400Z,-2.25
2023-11-29T06:52:04.835Z,-2.25
2023-11-29T06:57:07.082Z,-2.24
2023-11-29T07:02:09.278Z,-2.19
2023-11-29T07:07:12.522Z,-2.10
2023-11-29T07:12:14.713Z,-2.05
2023-11-29T07:17:16.964Z,-1.97
2023-11-29T07:22:19.601Z,-1.89
2023-11-29T07:27:21.837Z,-1.78
2023-11-29T07:32:25.995Z,-1.78
2023-11-29T07:37:28.901Z,-1.70
2023-11-29T07:43:01.895Z,-1.58
2023-11-29T07:48:34.239Z,-1.51
2023-11-29T07:53:36.663Z,-1.50
2023-11-29T07:58:39.465Z,-1.40
2023-11-29T08:03:42.002Z,-1.42
2023-11-29T08:08:44.230Z,-1.38
2023-11-29T08:13:46.408Z,-1.24
2023-11-29T08:18:48.542Z,-1.16
2023-11-29T08:23:50.793Z,-1.02
2023-11-29T08:28:52.967Z,-0.92
2023-11-29T08:33:55.124Z,-0.83
2023-11-29T08:38:57.820Z,-0.84
2023-11-29T08:44:00.010Z,-0.76
2023-11-29T08:49:02.178Z,-0.70
2023-11-29T08:54:05.174Z,-0.63
2023-11-29T08:59:07.382Z,-0.67
2023-11-29T09:04:09.467Z,-0.65
2023-11-29T09:09:13.687Z,-0.67
2023-11-29T09:14:15.788Z,-0.70
2023-11-29T09:19:18.018Z,-0.63
2023-11-29T09:24:20.125Z,-0.62
2023-11-29T09:29:27.414Z,-0.65
2023-11-29T09:34:29.808Z,-0.68
2023-11-29T09:39:32.014Z,-0.62
2023-11-29T09:44:37.878Z,-0.52
2023-11-29T09:49:40.451Z,-0.40
2023-11-29T09:54:44.318Z,-0.40
2023-11-29T09:59:46.450Z,-0.38
2023-11-29T10:04:48.861Z,-0.19
2023-11-29T10:09:51.098Z,-0.10
2023-11-29T10:15:01.490Z,0.05
2023-11-29T10:20:09.228Z,0.03
2023-11-29T10:25:19.018Z,0.02
2023-11-29T10:30:21.391Z,0.08
2023-11-29T10:35:26.396Z,0.27
2023-11-29T10:40:29.453Z,0.55
2023-11-29T10:45:36.325Z,0.76
2023-11-29T10:50:40.424Z,0.85
2023-11-29T10:55:45.392Z,0.90
2023-11-29T11:00:47.779Z,1.11
2023-11-29T11:05:50.102Z,1.57
2023-11-29T11:10:52.578Z,1.74
2023-11-29T11:15:57.240Z,1.73
2023-11-29T11:21:01.388Z,1.83
2023-11-29T11:26:11.258Z,1.75
2023-11-29T11:31:13.833Z,1.64
2023-11-29T11:36:18.217Z,1.46
2023-11-29T11:41:20.624Z,1.43
2023-11-29T11:46:22.993Z,1.46
2023-11-29T11:51:25.158Z,1.50
2023-11-29T11:56:28.544Z,1.58
2023-11-29T12:01:32.006Z,1.54
2023-11-29T12:06:34.561Z,1.55
2023-11-29T12:11:38.448Z,1.61
2023-11-29T12:16:40.706Z,1.59
2023-11-29T12:21:44.444Z,1.57
2023-11-29T12:26:48.227Z,1.44
2023-11-29T12:31:53.402Z,1.38
2023-11-29T12:36:58.860Z,1.41
2023-11-29T12:42:04.746Z,1.43
2023-11-29T12:47:07.354Z,1.43
2023-11-29T12:52:09.486Z,1.36
2023-11-29T12:57:12.407Z,1.36
2023-11-29T13:02:14.733Z,1.34
2023-11-29T13:07:16.998Z,1.27
2023-11-29T13:12:19.512Z,1.20
2023-11-29T13:17:24.470Z,1.04
2023-11-29T13:22:26.945Z,0.89
2023-11-29T13:27:29.529Z,0.87
2023-11-29T13:32:32.352Z,0.77
2023-11-29T13:37:34.730Z,0.71
2023-11-29T13:42:36.994Z,0.54
2023-11-29T13:47:40.856Z,0.51
2023-11-29T13:52:43.752Z,0.41
2023-11-29T13:57:46.585Z,0.31
2023-11-29T14:02:49.308Z,0.15
2023-11-29T14:07:52.822Z,0.07
2023-11-29T14:12:56.459Z,-0.04
2023-11-29T14:17:59.129Z,-0.09
2023-11-29T14:23:01.395Z,-0.16
2023-11-29T14:28:06.684Z,-0.23
2023-11-29T14:33:14.642Z,-0.40
2023-11-29T14:38:16.860Z,-0.56
2023-11-29T14:43:19.204Z,-0.65
2023-11-29T14:48:22.615Z,-0.75
2023-11-29T14:53:24.848Z,-0.88
2023-11-29T14:58:27.189Z,-0.93
2023-11-29T15:03:29.994Z,-1.03
2023-11-29T15:08:32.392Z,-1.08
2023-11-29T15:13:39.050Z,-1.19
2023-11-29T15:18:44.317Z,-1.27
2023-11-29T15:23:46.724Z,-1.35
2023-11-29T15:28:49.463Z,-1.38
2023-11-29T15:33:51.746Z,-1.45
2023-11-29T15:38:54.208Z,-1.53
2023-11-29T15:43:56.318Z,-1.64
2023-11-29T15:48:58.718Z,-1.69
2023-11-29T15:54:00.886Z,-1.76
2023-11-29T15:59:03.150Z,-1.83
2023-11-29T16:04:05.845Z,-1.99
2023-11-29T16:09:09.207Z,-2.08
2023-11-29T16:14:11.495Z,-2.17
2023-11-29T16:19:13.584Z,-2.21
2023-11-29T16:24:15.834Z,-2.24
2023-11-29T16:29:17.988Z,-2.31
2023-11-29T16:34:20.369Z,-2.37
2023-11-29T16:39:22.577Z,-2.46
2023-11-29T16:44:24.794Z,-2.50
2023-11-29T16:49:27.063Z,-2.47
2023-11-29T16:54:29.301Z,-2.49
2023-11-29T16:59:31.615Z,-2.55
2023-11-29T17:04:33.787Z,-2.56
2023-11-29T17:09:36.172Z,-2.60
2023-11-29T17:14:38.426Z,-2.60
2023-11-29T17:19:40.554Z,-2.63
2023-11-29T17:24:43.304Z,-2.70
2023-11-29T17:29:45.623Z,-2.73
2023-11-29T17:34:48.471Z,-2.72
2023-11-29T17:39:50.639Z,-2.68
2023-11-29T17:44:53.146Z,-2.70
2023-11-29T17:49:56.301Z,-2.64
2023-11-29T17:54:58.508Z,-2.54
2023-11-29T18:00:01.501Z,-2.55
2023-11-29T18:05:03.782Z,-2.51
2023-11-29T18:10:06.263Z,-2.50
2023-11-29T18:15:08.970Z,-2.45
2023-11-29T18:20:12.221Z,-2.48
2023-11-29T18:25:14.531Z,-2.56
2023-11-29T18:30:17.106Z,-2.62
2023-11-29T18:35:19.360Z,-2.57
2023-11-29T18:40:21.524Z,-2.65
2023-11-29T18:45:23.590Z,-2.69
2023-11-29T18:50:25.657Z,-2.62
2023-11-29T18:55:30.532Z,-2.61
2023-11-29T19:00:32.736Z,-2.56
2023-11-29T19:05:35.479Z,-2.48
2023-11-29T19:10:37.572Z,-2.46
2023-11-29T19:15:39.783Z,-2.42
2023-11-29T19:20:42.048Z,-2.38
2023-11-29T19:25:44.749Z,-2.34
2023-11-29T19:30:47.086Z,-2.36
2023-11-29T19:35:49.404Z,-2.40
2023-11-29T19:40:51.679Z,-2.47
2023-11-29T19:45:56.060Z,-2.48
2023-11-29T19:50:58.200Z,-2.43
2023-11-29T19:56:00.253Z,-2.43
2023-11-29T20:01:02.545Z,-2.36
2023-11-29T20:06:05.081Z,-2.31
2023-11-29T20:11:08.584Z,-2.28
2023-11-29T20:16:11.657Z,-2.31
2023-11-29T20:21:14.207Z,-2.30
2023-11-29T20:26:16.236Z,-2.28
2023-11-29T20:31:24.839Z,-2.28
2023-11-29T20:36:27.198Z,-2.35
2023-11-29T20:41:32.111Z,-2.37
2023-11-29T20:46:34.104Z,-2.36
2023-11-29T20:51:36.179Z,-2.27
2023-11-29T20:56:38.104Z,-2.09
2023-11-29T21:01:40.825Z,-1.99
2023-11-29T21:06:42.818Z,-1.93
2023-11-29T21:11:44.795Z,-1.82
2023-11-29T21:16:47.225Z,-1.74
2023-11-29T21:21:49.184Z,-1.65
2023-11-29T21:26:51.238Z,-1.57
2023-11-29T21:31:54.372Z,-1.52
2023-11-29T21:36:56.542Z,-1.50
2023-11-29T21:41:58.800Z,-1.48
2023-11-29T21:47:01.371Z,-1.45
2023-11-29T21:52:03.551Z,-1.43
2023-11-29T21:57:05.532Z,-1.40
2023-11-29T22:02:08.223Z,-1.40
2023-11-29T22:07:14.671Z,-1.40
2023-11-29T22:12:16.799Z,-1.40
2023-11-29T22:17:18.969Z,-1.33
2023-11-29T22:22:20.922Z,-1.29
2023-11-29T22:27:22.932Z,-1.20
2023-11-29T22:32:25.525Z,-1.11
2023-11-29T22:37:29.078Z,-1.00
2023-11-29T22:42:31.097Z,-0.89
2023-11-29T22:47:33.139Z,-0.82
2023-11-29T22:52:35.111Z,-0.73
2023-11-29T22:57:37.217Z,-0.60
2023-11-29T23:02:39.379Z,-0.48
2023-11-29T23:07:41.483Z,-0.44
2023-11-29T23:12:44.585Z,-0.39
2023-11-29T23:17:46.642Z,-0.35
2023-11-29T23:22:49.494Z,-0.35
2023-11-29T23:27:52.010Z,-0.29
2023-11-29T23:32:54.535Z,-0.24
2023-11-29T23:37:56.717Z,-0.16
2023-11-29T23:42:59.048Z,-0.09
2023-11-29T23:48:02.542Z,0.01
2023-11-29T23:53:04.843Z,0.08
2023-11-29T23:58:06.980Z,0.18
